Time,TemperatureF,DewpointF,PressureIn,WindDirection,WindDirectionDegrees,WindSpeedMPH,WindSpeedGustMPH,Humidity,HourlyPrecipIn,Conditions,Clouds,dailyrainin,SoftwareType,DateUTC
2013-03-17 00:00:00,16.5,14.3,30.00,NNE,12,0.0,0.0,91,0.00,,,0.00,Wunderground v.1.15,2013-03-17 04:00:00,
2013-03-17 00:02:00,16.4,14.2,30.00,NNE,12,0.0,0.0,91,0.00,,,0.00,Wunderground v.1.15,2013-03-17 04:02:00,
2013-03-17 00:06:00,16.2,13.8,30.00,North,11,0.0,0.0,90,0.00,,,0.00,Wunderground v.1.15,2013-03-17 04:06:00,
2013-03-17 00:12:00,16.0,13.6,30.00,NNE,12,0.0,0.0,90,0.00,,,0.00,Wunderground v.1.15,2013-03-17 04:12:00,
2013-03-17 00:16:00,16.2,14.3,30.00,North,11,0.0,0.0,92,0.00,,,0.00,Wunderground v.1.15,2013-03-17 04:16:00,
2013-03-17 00:22:00,16.2,14.0,30.00,North,11,0.0,0.0,91,0.00,,,0.00,Wunderground v.1.15,2013-03-17 04:22:00,
2013-03-17 00:28:00,16.1,13.9,30.00,North,11,0.0,0.0,91,0.00,,,0.00,Wunderground v.1.15,2013-03-17 04:28:00,
2013-03-17 00:34:00,16.4,14.5,30.00,North,11,0.0,0.0,92,0.00,,,0.00,Wunderground v.1.15,2013-03-17 04:34:00,
2013-03-17 00:40:00,16.7,14.8,30.00,NNE,12,0.0,0.0,92,0.00,,,0.00,Wunderground v.1.15,2013-03-17 04:40:00,
2013-03-17 00:46:00,16.8,14.9,30.00,NNE,12,0.0,0.0,92,0.00,,,0.00,Wunderground v.1.15,2013-03-17 04:46:00,
2013-03-17 00:52:00,16.8,14.9,30.00,NNE,12,0.0,0.0,92,0.00,,,0.00,Wunderground v.1.15,2013-03-17 04:52:00,
2013-03-17 00:58:00,16.7,14.8,30.00,NNE,12,0.0,0.0,92,0.00,,,0.00,Wunderground v.1.15,2013-03-17 04:58:00,
2013-03-17 01:04:00,17.0,15.1,30.01,North,11,0.0,0.0,92,0.00,,,0.00,Wunderground v.1.15,2013-03-17 05:04:00,
2013-03-17 01:10:00,16.7,14.5,30.01,NNE,12,0.0,0.0,91,0.00,,,0.00,Wunderground v.1.15,2013-03-17 05:10:00,
2013-03-17 01:16:00,16.7,14.8,30.02,NNE,12,0.0,0.0,92,0.00,,,0.00,Wunderground v.1.15,2013-03-17 05:16:00,
2013-03-17 01:22:00,17.3,15.6,30.02,WNW,288,0.0,0.0,93,0.00,,,0.00,Wunderground v.1.15,2013-03-17 05:22:00,
2013-03-17 01:28:00,17.7,15.8,30.02,WNW,288,0.0,0.0,92,0.00,,,0.00,Wunderground v.1.15,2013-03-17 05:28:00,
2013-03-17 01:34:00,17.5,15.3,30.02,WNW,288,0.0,0.0,91,0.00,,,0.00,Wunderground v.1.15,2013-03-17 05:34:00,
2013-03-17 01:40:00,17.4,15.2,30.03,WNW,288,0.0,0.0,91,0.00,,,0.00,Wunderground v.1.15,2013-03-17 05:40:00,
2013-03-17 01:46:00,17.4,15.2,30.03,WNW,288,0.0,0.0,91,0.00,,,0.00,Wunderground v.1.15,2013-03-17 05:46:00,
2013-03-17 01:52:00,17.7,15.8,30.03,WNW,288,0.0,0.0,92,0.00,,,0.00,Wunderground v.1.15,2013-03-17 05:52:00,
2013-03-17 01:58:00,18.2,16.3,30.03,WNW,288,0.0,0.0,92,0.00,,,0.00,Wunderground v.1.15,2013-03-17 05:58:00,
2013-03-17 02:04:00,18.8,16.9,30.03,WNW,288,0.0,0.0,92,0.00,,,0.00,Wunderground v.1.15,2013-03-17 06:04:00,
2013-03-17 02:10:00,19.2,17.3,30.03,WNW,288,0.0,0.0,92,0.00,,,0.00,Wunderground v.1.15,2013-03-17 06:10:00,
2013-03-17 02:16:00,19.6,17.7,30.03,WNW,288,0.0,0.0,92,0.00,,,0.00,Wunderground v.1.15,2013-03-17 06:16:00,
2013-03-17 02:22:00,19.9,17.7,30.03,WNW,288,0.0,0.0,91,0.00,,,0.00,Wunderground v.1.15,2013-03-17 06:22:00,
2013-03-17 02:28:00,20.0,17.8,30.03,WNW,288,0.0,0.0,91,0.00,,,0.00,Wunderground v.1.15,2013-03-17 06:28:00,
2013-03-17 02:34:00,20.1,17.9,30.02,WNW,288,0.0,0.0,91,0.00,,,0.00,Wunderground v.1.15,2013-03-17 06:34:00,
2013-03-17 02:40:00,20.4,18.2,30.03,WNW,288,0.0,0.0,91,0.00,,,0.00,Wunderground v.1.15,2013-03-17 06:40:00,
2013-03-17 02:46:00,20.5,18.3,30.03,WNW,288,0.0,0.0,91,0.00,,,0.00,Wunderground v.1.15,2013-03-17 06:46:00,
2013-03-17 02:52:00,20.6,18.1,30.03,WNW,288,0.0,0.0,90,0.00,,,0.00,Wunderground v.1.15,2013-03-17 06:52:00,
2013-03-17 02:58:00,20.8,18.3,30.03,WNW,288,0.0,0.0,90,0.00,,,0.00,Wunderground v.1.15,2013-03-17 06:58:00,
2013-03-17 03:04:00,21.1,18.6,30.03,WNW,288,0.0,0.0,90,0.00,,,0.00,Wunderground v.1.15,2013-03-17 07:04:00,
2013-03-17 03:10:00,21.4,18.7,30.03,WNW,288,0.0,0.0,89,0.00,,,0.00,Wunderground v.1.15,2013-03-17 07:10:00,
2013-03-17 03:16:00,21.7,19.0,30.03,WNW,288,0.0,0.0,89,0.00,,,0.00,Wunderground v.1.15,2013-03-17 07:16:00,
2013-03-17 03:22:00,22.0,19.0,30.03,West,278,0.0,0.0,88,0.00,,,0.00,Wunderground v.1.15,2013-03-17 07:22:00,
2013-03-17 03:28:00,22.3,19.3,30.04,West,278,0.0,0.0,88,0.00,,,0.00,Wunderground v.1.15,2013-03-17 07:28:00,
2013-03-17 03:34:00,22.5,19.5,30.04,West,278,0.0,0.0,88,0.00,,,0.00,Wunderground v.1.15,2013-03-17 07:34:00,
2013-03-17 03:40:00,22.7,19.7,30.04,NE,34,0.0,0.0,88,0.00,,,0.00,Wunderground v.1.15,2013-03-17 07:40:00,
2013-03-17 03:46:00,22.8,19.8,30.04,WSW,250,0.0,0.0,88,0.00,,,0.00,Wunderground v.1.15,2013-03-17 07:46:00,
2013-03-17 03:52:00,23.0,20.0,30.04,North,350,0.0,0.0,88,0.00,,,0.00,Wunderground v.1.15,2013-03-17 07:52:00,
2013-03-17 03:58:00,23.1,20.1,30.04,NNE,18,0.0,0.0,88,0.00,,,0.00,Wunderground v.1.15,2013-03-17 07:58:00,
2013-03-17 04:04:00,23.1,20.1,30.04,WNW,300,0.0,0.0,88,0.00,,,0.00,Wunderground v.1.15,2013-03-17 08:04:00,
2013-03-17 04:10:00,23.2,20.2,30.04,NNW,348,0.0,0.0,88,0.00,,,0.00,Wunderground v.1.15,2013-03-17 08:10:00,
2013-03-17 04:16:00,23.2,20.4,30.04,SW,216,0.0,0.0,89,0.00,,,0.00,Wunderground v.1.15,2013-03-17 08:16:00,
2013-03-17 04:22:00,23.2,20.4,30.04,SW,229,0.0,0.0,89,0.00,,,0.00,Wunderground v.1.15,2013-03-17 08:22:00,
2013-03-17 04:28:00,23.2,20.4,30.05,SW,231,0.0,0.0,89,0.00,,,0.00,Wunderground v.1.15,2013-03-17 08:28:00,
2013-03-17 04:34:00,23.2,20.4,30.05,SW,235,0.0,0.0,89,0.00,,,0.00,Wunderground v.1.15,2013-03-17 08:34:00,
2013-03-17 04:40:00,23.2,20.4,30.05,WSW,248,0.0,0.0,89,0.00,,,0.00,Wunderground v.1.15,2013-03-17 08:40:00,
2013-03-17 04:46:00,23.1,20.3,30.05,WNW,301,0.0,0.0,89,0.00,,,0.00,Wunderground v.1.15,2013-03-17 08:46:00,
2013-03-17 04:52:00,23.1,20.3,30.06,SW,229,0.0,0.0,89,0.00,,,0.00,Wunderground v.1.15,2013-03-17 08:52:00,
2013-03-17 04:58:00,23.2,20.2,30.06,WSW,253,0.0,0.0,88,0.00,,,0.00,Wunderground v.1.15,2013-03-17 08:58:00,
2013-03-17 05:04:00,23.2,20.2,30.06,NNE,32,0.0,0.0,88,0.00,,,0.00,Wunderground v.1.15,2013-03-17 09:04:00,
2013-03-17 05:10:00,23.2,20.2,30.06,SW,218,0.0,0.0,88,0.00,,,0.00,Wunderground v.1.15,2013-03-17 09:10:00,
2013-03-17 05:16:00,23.3,20.3,30.06,SW,217,0.0,1.0,88,0.00,,,0.00,Wunderground v.1.15,2013-03-17 09:16:00,
2013-03-17 05:22:00,23.4,20.4,30.07,WNW,293,0.0,0.0,88,0.00,,,0.00,Wunderground v.1.15,2013-03-17 09:22:00,
2013-03-17 05:28:00,23.5,20.5,30.07,NE,46,0.0,1.0,88,0.00,,,0.00,Wunderground v.1.15,2013-03-17 09:28:00,
2013-03-17 05:34:00,23.6,20.6,30.07,West,281,0.0,0.0,88,0.00,,,0.00,Wunderground v.1.15,2013-03-17 09:34:00,
2013-03-17 05:40:00,23.6,20.6,30.08,WNW,293,0.0,0.0,88,0.00,,,0.00,Wunderground v.1.15,2013-03-17 09:40:00,
2013-03-17 05:46:00,23.6,20.6,30.08,NNW,327,0.0,2.0,88,0.00,,,0.00,Wunderground v.1.15,2013-03-17 09:46:00,
2013-03-17 05:52:00,23.5,20.5,30.08,NNE,25,0.0,1.0,88,0.00,,,0.00,Wunderground v.1.15,2013-03-17 09:52:00,
2013-03-17 05:58:00,23.5,20.5,30.08,NNE,19,0.0,2.0,88,0.00,,,0.00,Wunderground v.1.15,2013-03-17 09:58:00,
2013-03-17 06:04:00,23.2,19.9,30.08,NNW,340,1.0,2.0,87,0.00,,,0.00,Wunderground v.1.15,2013-03-17 10:04:00,
2013-03-17 06:10:00,23.0,19.7,30.08,North,356,1.0,1.0,87,0.00,,,0.00,Wunderground v.1.15,2013-03-17 10:10:00,
2013-03-17 06:16:00,22.8,19.5,30.08,North,9,1.0,1.0,87,0.00,,,0.00,Wunderground v.1.15,2013-03-17 10:16:00,
2013-03-17 06:22:00,22.7,19.4,30.08,North,355,0.0,0.0,87,0.00,,,0.00,Wunderground v.1.15,2013-03-17 10:22:00,
2013-03-17 06:28:00,22.5,18.9,30.09,NE,51,0.0,0.0,86,0.00,,,0.00,Wunderground v.1.15,2013-03-17 10:28:00,
2013-03-17 06:34:00,22.3,19.0,30.09,East,91,0.0,0.0,87,0.00,,,0.00,Wunderground v.1.15,2013-03-17 10:34:00,
2013-03-17 06:40:00,22.1,18.8,30.09,SW,219,0.0,0.0,87,0.00,,,0.00,Wunderground v.1.15,2013-03-17 10:40:00,
2013-03-17 06:46:00,21.9,18.6,30.10,SW,219,0.0,0.0,87,0.00,,,0.00,Wunderground v.1.15,2013-03-17 10:46:00,
2013-03-17 06:52:00,21.7,18.7,30.10,WNW,284,0.0,0.0,88,0.00,,,0.00,Wunderground v.1.15,2013-03-17 10:52:00,
2013-03-17 06:58:00,21.8,19.1,30.10,North,357,0.0,0.0,89,0.00,,,0.00,Wunderground v.1.15,2013-03-17 10:58:00,
2013-03-17 07:04:00,21.7,18.7,30.10,North,357,0.0,0.0,88,0.00,,,0.00,Wunderground v.1.15,2013-03-17 11:04:00,
2013-03-17 07:10:00,21.5,18.5,30.11,North,356,0.0,0.0,88,0.00,,,0.00,Wunderground v.1.15,2013-03-17 11:10:00,
2013-03-17 07:16:00,21.2,18.2,30.11,North,356,0.0,0.0,88,0.00,,,0.00,Wunderground v.1.15,2013-03-17 11:16:00,
2013-03-17 07:22:00,20.9,17.9,30.12,North,356,0.0,0.0,88,0.00,,,0.00,Wunderground v.1.15,2013-03-17 11:22:00,
2013-03-17 07:28:00,20.5,17.8,30.12,North,356,0.0,0.0,89,0.00,,,0.00,Wunderground v.1.15,2013-03-17 11:28:00,
2013-03-17 07:34:00,20.1,17.4,30.12,North,357,0.0,0.0,89,0.00,,,0.00,Wunderground v.1.15,2013-03-17 11:34:00,
2013-03-17 07:40:00,19.5,16.8,30.12,North,357,0.0,0.0,89,0.00,,,0.00,Wunderground v.1.15,2013-03-17 11:40:00,
2013-03-17 07:46:00,19.2,16.7,30.13,North,356,0.0,0.0,90,0.00,,,0.00,Wunderground v.1.15,2013-03-17 11:46:00,
2013-03-17 07:52:00,19.1,16.7,30.13,North,356,0.0,0.0,90,0.00,,,0.00,Wunderground v.1.15,2013-03-17 11:52:00,
2013-03-17 07:58:00,19.0,16.8,30.13,North,356,0.0,0.0,91,0.00,,,0.00,Wunderground v.1.15,2013-03-17 11:58:00,
2013-03-17 08:04:00,19.4,17.5,30.13,North,356,0.0,0.0,92,0.00,,,0.00,Wunderground v.1.15,2013-03-17 12:04:00,
2013-03-17 08:10:00,19.7,17.8,30.13,North,357,0.0,0.0,92,0.00,,,0.00,Wunderground v.1.15,2013-03-17 12:10:00,
2013-03-17 08:16:00,20.2,18.5,30.14,North,356,0.0,0.0,93,0.00,,,0.00,Wunderground v.1.15,2013-03-17 12:16:00,
2013-03-17 08:22:00,20.3,18.3,30.14,North,356,0.0,0.0,92,0.00,,,0.00,Wunderground v.1.15,2013-03-17 12:22:00,
2013-03-17 08:28:00,20.7,19.0,30.14,North,349,0.0,0.0,93,0.00,,,0.00,Wunderground v.1.15,2013-03-17 12:28:00,
2013-03-17 08:34:00,21.4,19.7,30.15,WSW,248,0.0,1.0,93,0.00,,,0.00,Wunderground v.1.15,2013-03-17 12:34:00,
2013-03-17 08:40:00,22.0,20.0,30.15,WSW,240,0.0,0.0,92,0.00,,,0.00,Wunderground v.1.15,2013-03-17 12:40:00,
2013-03-17 08:46:00,22.5,20.0,30.15,WSW,250,0.0,0.0,90,0.00,,,0.00,Wunderground v.1.15,2013-03-17 12:46:00,
2013-03-17 08:52:00,23.1,20.3,30.16,WSW,255,0.0,1.0,89,0.00,,,0.00,Wunderground v.1.15,2013-03-17 12:52:00,
2013-03-17 08:58:00,23.6,20.0,30.16,WSW,240,0.0,2.0,86,0.00,,,0.00,Wunderground v.1.15,2013-03-17 12:58:00,
2013-03-17 09:04:00,24.2,20.1,30.16,ESE,123,0.0,0.0,84,0.00,,,0.00,Wunderground v.1.15,2013-03-17 13:04:00,
2013-03-17 09:10:00,25.2,20.5,30.16,SSW,207,1.0,1.0,82,0.00,,,0.00,Wunderground v.1.15,2013-03-17 13:10:00,
2013-03-17 09:16:00,25.9,20.6,30.16,WSW,249,1.0,4.0,80,0.00,,,0.00,Wunderground v.1.15,2013-03-17 13:16:00,
2013-03-17 09:22:00,26.5,20.6,30.17,South,177,1.0,2.0,78,0.00,,,0.00,Wunderground v.1.15,2013-03-17 13:22:00,
2013-03-17 09:28:00,26.9,20.7,30.17,South,188,1.0,2.0,77,0.00,,,0.00,Wunderground v.1.15,2013-03-17 13:28:00,
2013-03-17 09:34:00,27.2,20.6,30.18,SW,232,1.0,1.0,76,0.00,,,0.00,Wunderground v.1.15,2013-03-17 13:34:00,
2013-03-17 09:40:00,27.5,20.6,30.18,NW,316,1.0,1.0,75,0.00,,,0.00,Wunderground v.1.15,2013-03-17 13:40:00,
2013-03-17 09:46:00,28.2,20.7,30.17,NW,326,1.0,1.0,73,0.00,,,0.00,Wunderground v.1.15,2013-03-17 13:46:00,
2013-03-17 09:52:00,28.2,20.3,30.18,SW,232,1.0,3.0,72,0.00,,,0.00,Wunderground v.1.15,2013-03-17 13:52:00,
2013-03-17 09:58:00,28.1,19.6,30.18,WSW,240,1.0,3.0,70,0.00,,,0.00,Wunderground v.1.15,2013-03-17 13:58:00,
2013-03-17 10:04:00,27.7,18.8,30.18,West,259,1.0,1.0,69,0.00,,,0.00,Wunderground v.1.15,2013-03-17 14:04:00,
2013-03-17 10:10:00,28.0,19.5,30.18,ENE,76,2.0,2.0,70,0.00,,,0.00,Wunderground v.1.15,2013-03-17 14:10:00,
2013-03-17 10:16:00,28.4,18.8,30.18,NNE,22,2.0,4.0,67,0.00,,,0.00,Wunderground v.1.15,2013-03-17 14:16:00,
2013-03-17 10:22:00,28.6,19.4,30.18,NE,53,2.0,2.0,68,0.00,,,0.00,Wunderground v.1.15,2013-03-17 14:22:00,
2013-03-17 10:28:00,29.3,19.7,30.19,NW,314,2.0,2.0,67,0.00,,,0.00,Wunderground v.1.15,2013-03-17 14:28:00,
2013-03-17 10:34:00,29.0,18.3,30.19,NE,49,1.0,2.0,64,0.00,,,0.00,Wunderground v.1.15,2013-03-17 14:34:00,
2013-03-17 10:40:00,29.4,18.7,30.19,SSW,195,2.0,2.0,64,0.00,,,0.00,Wunderground v.1.15,2013-03-17 14:40:00,
2013-03-17 10:46:00,30.1,18.6,30.19,NNE,15,1.0,3.0,62,0.00,,,0.00,Wunderground v.1.15,2013-03-17 14:46:00,
2013-03-17 10:52:00,29.7,18.6,30.19,NE,54,3.0,3.0,63,0.00,,,0.00,Wunderground v.1.15,2013-03-17 14:52:00,
2013-03-17 10:58:00,29.5,18.1,30.19,NNE,30,2.0,3.0,62,0.00,,,0.00,Wunderground v.1.15,2013-03-17 14:58:00,
2013-03-17 11:04:00,29.3,18.6,30.19,SSW,194,1.0,1.0,64,0.00,,,0.00,Wunderground v.1.15,2013-03-17 15:04:00,
2013-03-17 11:10:00,28.8,18.1,30.20,NNW,343,2.0,5.0,64,0.00,,,0.00,Wunderground v.1.15,2013-03-17 15:10:00,
2013-03-17 11:16:00,28.8,18.1,30.20,NNW,328,2.0,5.0,64,0.00,,,0.00,Wunderground v.1.15,2013-03-17 15:16:00,
2013-03-17 11:22:00,29.4,16.8,30.20,North,8,2.0,2.0,59,0.00,,,0.00,Wunderground v.1.15,2013-03-17 15:22:00,
2013-03-17 11:28:00,30.3,18.1,30.20,NW,311,2.0,2.0,60,0.00,,,0.00,Wunderground v.1.15,2013-03-17 15:28:00,
2013-03-17 11:34:00,30.1,17.5,30.21,WSW,240,1.0,1.0,59,0.00,,,0.00,Wunderground v.1.15,2013-03-17 15:34:00,
2013-03-17 11:40:00,29.7,17.5,30.21,NNW,340,1.0,1.0,60,0.00,,,0.00,Wunderground v.1.15,2013-03-17 15:40:00,
2013-03-17 11:46:00,30.0,19.3,30.21,SSW,197,1.0,2.0,64,0.00,,,0.00,Wunderground v.1.15,2013-03-17 15:46:00,
2013-03-17 11:52:00,31.1,18.8,30.22,NNW,330,2.0,3.0,60,0.00,,,0.00,Wunderground v.1.15,2013-03-17 15:52:00,
2013-03-17 11:58:00,31.7,18.6,30.22,NNW,348,2.0,7.0,58,0.00,,,0.00,Wunderground v.1.15,2013-03-17 15:58:00,
2013-03-17 12:04:00,30.5,17.1,30.22,NE,39,3.0,4.0,57,0.00,,,0.00,Wunderground v.1.15,2013-03-17 16:04:00,
2013-03-17 12:10:00,29.2,18.2,30.23,North,8,3.0,7.0,63,0.00,,,0.00,Wunderground v.1.15,2013-03-17 16:10:00,
2013-03-17 12:16:00,28.9,19.0,30.23,North,356,3.0,7.0,66,0.00,,,0.00,Wunderground v.1.15,2013-03-17 16:16:00,
2013-03-17 12:22:00,28.9,19.0,30.23,East,83,1.0,3.0,66,0.00,,,0.00,Wunderground v.1.15,2013-03-17 16:22:00,
2013-03-17 12:28:00,28.7,18.8,30.23,North,8,2.0,3.0,66,0.00,,,0.00,Wunderground v.1.15,2013-03-17 16:28:00,
2013-03-17 12:34:00,29.1,18.1,30.23,NW,326,3.0,6.0,63,0.00,,,0.00,Wunderground v.1.15,2013-03-17 16:34:00,
2013-03-17 12:40:00,28.7,17.3,30.23,NNE,32,4.0,4.0,62,0.00,,,0.00,Wunderground v.1.15,2013-03-17 16:40:00,
2013-03-17 12:46:00,28.7,16.9,30.23,NW,309,3.0,4.0,61,0.00,,,0.00,Wunderground v.1.15,2013-03-17 16:46:00,
2013-03-17 12:52:00,28.6,19.4,30.24,NE,51,3.0,5.0,68,0.00,,,0.00,Wunderground v.1.15,2013-03-17 16:52:00,
2013-03-17 12:58:00,29.4,19.8,30.24,NNW,342,4.0,5.0,67,0.00,,,0.00,Wunderground v.1.15,2013-03-17 16:58:00,
2013-03-17 13:04:00,29.6,18.9,30.23,North,360,3.0,5.0,64,0.00,,,0.00,Wunderground v.1.15,2013-03-17 17:04:00,
2013-03-17 13:10:00,29.7,19.0,30.24,South,176,4.0,4.0,64,0.00,,,0.00,Wunderground v.1.15,2013-03-17 17:10:00,
2013-03-17 13:16:00,29.6,17.8,30.24,WNW,293,3.0,4.0,61,0.00,,,0.00,Wunderground v.1.15,2013-03-17 17:16:00,
2013-03-17 13:22:00,29.4,18.3,30.24,NW,322,2.0,2.0,63,0.00,,,0.00,Wunderground v.1.15,2013-03-17 17:22:00,
2013-03-17 13:28:00,30.0,17.8,30.24,NW,308,2.0,4.0,60,0.00,,,0.00,Wunderground v.1.15,2013-03-17 17:28:00,
2013-03-17 13:34:00,29.8,17.2,30.24,NNW,343,2.0,5.0,59,0.00,,,0.00,Wunderground v.1.15,2013-03-17 17:34:00,
2013-03-17 13:40:00,29.5,16.9,30.24,North,6,3.0,5.0,59,0.00,,,0.00,Wunderground v.1.15,2013-03-17 17:40:00,
2013-03-17 13:46:00,29.1,16.5,30.24,NNE,15,5.0,5.0,59,0.00,,,0.00,Wunderground v.1.15,2013-03-17 17:46:00,
2013-03-17 13:52:00,30.2,18.7,30.24,NW,311,4.0,5.0,62,0.00,,,0.00,Wunderground v.1.15,2013-03-17 17:52:00,
2013-03-17 13:58:00,30.7,18.4,30.24,North,354,4.0,6.0,60,0.00,,,0.00,Wunderground v.1.15,2013-03-17 17:58:00,
2013-03-17 14:04:00,31.0,17.9,30.24,NNE,29,3.0,4.0,58,0.00,,,0.00,Wunderground v.1.15,2013-03-17 18:04:00,
2013-03-17 14:10:00,30.6,16.7,30.24,NW,318,1.0,1.0,56,0.00,,,0.00,Wunderground v.1.15,2013-03-17 18:10:00,
2013-03-17 14:18:00,31.1,17.6,30.24,NNE,32,1.0,2.0,57,0.00,,,0.00,Wunderground v.1.15,2013-03-17 18:18:00,
2013-03-17 14:24:00,30.6,17.2,30.24,SE,139,2.0,2.0,57,0.00,,,0.00,Wunderground v.1.15,2013-03-17 18:24:00,
2013-03-17 14:30:00,31.1,18.0,30.24,NNE,22,3.0,8.0,58,0.00,,,0.00,Wunderground v.1.15,2013-03-17 18:30:00,
2013-03-17 14:36:00,30.1,17.1,30.24,North,355,4.0,8.0,58,0.00,,,0.00,Wunderground v.1.15,2013-03-17 18:36:00,
2013-03-17 14:42:00,30.1,16.7,30.24,NNW,347,5.0,5.0,57,0.00,,,0.00,Wunderground v.1.15,2013-03-17 18:42:00,
2013-03-17 14:48:00,29.9,16.9,30.24,NNE,15,3.0,6.0,58,0.00,,,0.00,Wunderground v.1.15,2013-03-17 18:48:00,
2013-03-17 14:54:00,30.1,17.5,30.24,West,266,3.0,4.0,59,0.00,,,0.00,Wunderground v.1.15,2013-03-17 18:54:00,
2013-03-17 15:00:00,30.9,17.4,30.24,WSW,250,2.0,2.0,57,0.00,,,0.00,Wunderground v.1.15,2013-03-17 19:00:00,
2013-03-17 15:06:00,31.0,16.7,30.24,NNE,23,2.0,2.0,55,0.00,,,0.00,Wunderground v.1.15,2013-03-17 19:06:00,
2013-03-17 15:12:00,31.7,17.8,30.24,NNW,342,2.0,2.0,56,0.00,,,0.00,Wunderground v.1.15,2013-03-17 19:12:00,
2013-03-17 15:18:00,31.4,17.9,30.24,North,353,3.0,8.0,57,0.00,,,0.00,Wunderground v.1.15,2013-03-17 19:18:00,
2013-03-17 15:24:00,31.3,16.6,30.24,NNE,19,4.0,4.0,54,0.00,,,0.00,Wunderground v.1.15,2013-03-17 19:24:00,
2013-03-17 15:30:00,31.6,17.3,30.24,North,1,2.0,3.0,55,0.00,,,0.00,Wunderground v.1.15,2013-03-17 19:30:00,
2013-03-17 15:36:00,31.3,15.7,30.24,NNE,27,2.0,3.0,52,0.00,,,0.00,Wunderground v.1.15,2013-03-17 19:36:00,
2013-03-17 15:42:00,30.3,15.2,30.24,NNE,27,2.0,5.0,53,0.00,,,0.00,Wunderground v.1.15,2013-03-17 19:42:00,
2013-03-17 15:48:00,29.6,15.0,30.24,NNE,16,3.0,5.0,54,0.00,,,0.00,Wunderground v.1.15,2013-03-17 19:48:00,
2013-03-17 15:54:00,30.0,14.9,30.24,NNW,338,2.0,3.0,53,0.00,,,0.00,Wunderground v.1.15,2013-03-17 19:54:00,
2013-03-17 16:00:00,30.8,15.7,30.24,WSW,249,1.0,1.0,53,0.00,,,0.00,Wunderground v.1.15,2013-03-17 20:00:00,
2013-03-17 16:06:00,30.9,14.9,30.24,North,5,2.0,5.0,51,0.00,,,0.00,Wunderground v.1.15,2013-03-17 20:06:00,
2013-03-17 16:12:00,30.9,14.9,30.24,SW,228,2.0,3.0,51,0.00,,,0.00,Wunderground v.1.15,2013-03-17 20:12:00,
2013-03-17 16:18:00,31.3,14.3,30.25,NNE,13,2.0,3.0,49,0.00,,,0.00,Wunderground v.1.15,2013-03-17 20:18:00,
2013-03-17 16:24:00,30.8,14.3,30.25,NNE,15,2.0,3.0,50,0.00,,,0.00,Wunderground v.1.15,2013-03-17 20:24:00,
2013-03-17 16:30:00,31.0,14.5,30.25,WSW,257,3.0,3.0,50,0.00,,,0.00,Wunderground v.1.15,2013-03-17 20:30:00,
2013-03-17 16:36:00,30.7,14.7,30.25,NNE,30,3.0,4.0,51,0.00,,,0.00,Wunderground v.1.15,2013-03-17 20:36:00,
2013-03-17 16:42:00,30.7,14.7,30.25,NNE,25,3.0,3.0,51,0.00,,,0.00,Wunderground v.1.15,2013-03-17 20:42:00,
2013-03-17 16:48:00,30.6,14.1,30.25,North,9,3.0,3.0,50,0.00,,,0.00,Wunderground v.1.15,2013-03-17 20:48:00,
2013-03-17 16:54:00,31.3,14.3,30.25,NNW,338,2.0,4.0,49,0.00,,,0.00,Wunderground v.1.15,2013-03-17 20:54:00,
2013-03-17 17:00:00,30.7,14.2,30.25,NNW,340,2.0,2.0,50,0.00,,,0.00,Wunderground v.1.15,2013-03-17 21:00:00,
2013-03-17 17:06:00,30.1,12.7,30.26,North,6,2.0,4.0,48,0.00,,,0.00,Wunderground v.1.15,2013-03-17 21:06:00,
2013-03-17 17:12:00,30.2,13.8,30.26,NE,53,3.0,3.0,50,0.00,,,0.00,Wunderground v.1.15,2013-03-17 21:12:00,
2013-03-17 17:18:00,30.2,12.8,30.26,NNE,17,3.0,4.0,48,0.00,,,0.00,Wunderground v.1.15,2013-03-17 21:18:00,
2013-03-17 17:24:00,29.9,12.6,30.26,East,92,3.0,3.0,48,0.00,,,0.00,Wunderground v.1.15,2013-03-17 21:24:00,
2013-03-17 17:30:00,29.6,11.8,30.26,North,6,3.0,3.0,47,0.00,,,0.00,Wunderground v.1.15,2013-03-17 21:30:00,
2013-03-17 17:36:00,29.5,11.2,30.26,West,276,3.0,3.0,46,0.00,,,0.00,Wunderground v.1.15,2013-03-17 21:36:00,
2013-03-17 17:42:00,29.6,11.8,30.26,North,356,2.0,2.0,47,0.00,,,0.00,Wunderground v.1.15,2013-03-17 21:42:00,
2013-03-17 17:48:00,29.5,11.7,30.26,NNE,23,2.0,4.0,47,0.00,,,0.00,Wunderground v.1.15,2013-03-17 21:48:00,
2013-03-17 17:54:00,29.2,11.4,30.27,NE,41,3.0,3.0,47,0.00,,,0.00,Wunderground v.1.15,2013-03-17 21:54:00,
2013-03-17 18:00:00,28.5,11.7,30.27,North,8,4.0,5.0,49,0.00,,,0.00,Wunderground v.1.15,2013-03-17 22:00:00,
2013-03-17 18:06:00,28.4,11.6,30.27,NNE,18,4.0,5.0,49,0.00,,,0.00,Wunderground v.1.15,2013-03-17 22:06:00,
2013-03-17 18:12:00,27.8,11.1,30.27,NNW,330,3.0,3.0,49,0.00,,,0.00,Wunderground v.1.15,2013-03-17 22:12:00,
2013-03-17 18:18:00,27.7,11.9,30.28,NNW,338,2.0,3.0,51,0.00,,,0.00,Wunderground v.1.15,2013-03-17 22:18:00,
2013-03-17 18:24:00,27.3,11.1,30.28,North,354,2.0,2.0,50,0.00,,,0.00,Wunderground v.1.15,2013-03-17 22:24:00,
2013-03-17 18:30:00,27.1,11.3,30.28,NNE,25,2.0,3.0,51,0.00,,,0.00,Wunderground v.1.15,2013-03-17 22:30:00,
2013-03-17 18:36:00,27.0,10.8,30.28,NW,309,1.0,3.0,50,0.00,,,0.00,Wunderground v.1.15,2013-03-17 22:36:00,
2013-03-17 18:42:00,26.8,11.1,30.28,NW,307,1.0,3.0,51,0.00,,,0.00,Wunderground v.1.15,2013-03-17 22:42:00,
2013-03-17 18:48:00,26.5,10.3,30.28,North,357,1.0,3.0,50,0.00,,,0.00,Wunderground v.1.15,2013-03-17 22:48:00,
2013-03-17 18:54:00,26.3,10.2,30.28,North,11,0.0,1.0,50,0.00,,,0.00,Wunderground v.1.15,2013-03-17 22:54:00,
2013-03-17 19:00:00,26.1,10.4,30.28,West,278,0.0,0.0,51,0.00,,,0.00,Wunderground v.1.15,2013-03-17 23:00:00,
2013-03-17 19:08:00,25.7,9.6,30.28,NNW,339,1.0,4.0,50,0.00,,,0.00,Wunderground v.1.15,2013-03-17 23:08:00,
2013-03-17 19:14:00,25.5,9.4,30.28,NNE,22,2.0,2.0,50,0.00,,,0.00,Wunderground v.1.15,2013-03-17 23:14:00,
2013-03-17 19:20:00,25.3,9.7,30.28,North,355,1.0,1.0,51,0.00,,,0.00,Wunderground v.1.15,2013-03-17 23:20:00,
2013-03-17 19:26:00,25.1,9.5,30.29,NNE,23,1.0,2.0,51,0.00,,,0.00,Wunderground v.1.15,2013-03-17 23:26:00,
2013-03-17 19:32:00,24.9,8.9,30.29,North,5,2.0,2.0,50,0.00,,,0.00,Wunderground v.1.15,2013-03-17 23:32:00,
2013-03-17 19:38:00,24.8,9.2,30.29,NNE,20,2.0,2.0,51,0.00,,,0.00,Wunderground v.1.15,2013-03-17 23:38:00,
2013-03-17 19:44:00,24.7,9.1,30.30,NNE,24,1.0,2.0,51,0.00,,,0.00,Wunderground v.1.15,2013-03-17 23:44:00,
2013-03-17 19:50:00,24.6,9.0,30.30,NNE,15,1.0,1.0,51,0.00,,,0.00,Wunderground v.1.15,2013-03-17 23:50:00,
2013-03-17 19:56:00,24.4,8.8,30.30,NNE,16,1.0,2.0,51,0.00,,,0.00,Wunderground v.1.15,2013-03-17 23:56:00,
2013-03-17 20:02:00,24.3,8.7,30.30,NNE,12,2.0,3.0,51,0.00,,,0.00,Wunderground v.1.15,2013-03-18 00:02:00,
2013-03-17 20:08:00,24.2,9.1,30.31,NE,37,1.0,3.0,52,0.00,,,0.00,Wunderground v.1.15,2013-03-18 00:08:00,
2013-03-17 20:14:00,24.0,8.9,30.30,East,79,1.0,1.0,52,0.00,,,0.00,Wunderground v.1.15,2013-03-18 00:14:00,
2013-03-17 20:20:00,23.9,9.2,30.31,NNE,15,1.0,2.0,53,0.00,,,0.00,Wunderground v.1.15,2013-03-18 00:20:00,
2013-03-17 20:26:00,23.7,9.5,30.30,NNE,24,1.0,2.0,54,0.00,,,0.00,Wunderground v.1.15,2013-03-18 00:26:00,
2013-03-17 20:32:00,23.5,9.7,30.31,North,11,1.0,2.0,55,0.00,,,0.00,Wunderground v.1.15,2013-03-18 00:32:00,
2013-03-17 20:38:00,23.3,9.9,30.31,NNE,30,0.0,2.0,56,0.00,,,0.00,Wunderground v.1.15,2013-03-18 00:38:00,
2013-03-17 20:44:00,23.1,9.7,30.30,NNE,22,0.0,1.0,56,0.00,,,0.00,Wunderground v.1.15,2013-03-18 00:44:00,
2013-03-17 20:50:00,23.0,9.6,30.31,North,8,0.0,1.0,56,0.00,,,0.00,Wunderground v.1.15,2013-03-18 00:50:00,
2013-03-17 20:56:00,22.9,9.9,30.30,ENE,77,1.0,1.0,57,0.00,,,0.00,Wunderground v.1.15,2013-03-18 00:56:00,
2013-03-17 21:02:00,22.8,10.2,30.30,NE,48,1.0,1.0,58,0.00,,,0.00,Wunderground v.1.15,2013-03-18 01:02:00,
2013-03-17 21:08:00,22.6,10.0,30.30,North,359,1.0,1.0,58,0.00,,,0.00,Wunderground v.1.15,2013-03-18 01:08:00,
2013-03-17 21:14:00,22.5,9.9,30.31,North,6,1.0,2.0,58,0.00,,,0.00,Wunderground v.1.15,2013-03-18 01:14:00,
2013-03-17 21:20:00,22.4,9.8,30.31,East,80,1.0,1.0,58,0.00,,,0.00,Wunderground v.1.15,2013-03-18 01:20:00,
2013-03-17 21:26:00,22.3,10.1,30.31,NNE,15,0.0,1.0,59,0.00,,,0.00,Wunderground v.1.15,2013-03-18 01:26:00,
2013-03-17 21:32:00,21.9,10.1,30.32,NNE,18,0.0,0.0,60,0.00,,,0.00,Wunderground v.1.15,2013-03-18 01:32:00,
2013-03-17 21:38:00,21.5,10.1,30.32,NNE,17,0.0,0.0,61,0.00,,,0.00,Wunderground v.1.15,2013-03-18 01:38:00,
2013-03-17 21:44:00,21.4,10.0,30.32,NNE,20,0.0,0.0,61,0.00,,,0.00,Wunderground v.1.15,2013-03-18 01:44:00,
2013-03-17 21:50:00,21.2,10.2,30.32,North,6,0.0,0.0,62,0.00,,,0.00,Wunderground v.1.15,2013-03-18 01:50:00,
2013-03-17 21:56:00,21.0,10.0,30.33,North,6,0.0,0.0,62,0.00,,,0.00,Wunderground v.1.15,2013-03-18 01:56:00,
2013-03-17 22:02:00,20.6,9.6,30.33,North,6,0.0,0.0,62,0.00,,,0.00,Wunderground v.1.15,2013-03-18 02:02:00,
2013-03-17 22:08:00,20.3,9.7,30.33,North,6,0.0,0.0,63,0.00,,,0.00,Wunderground v.1.15,2013-03-18 02:08:00,
2013-03-17 22:14:00,19.9,9.7,30.33,North,6,0.0,0.0,64,0.00,,,0.00,Wunderground v.1.15,2013-03-18 02:14:00,
2013-03-17 22:20:00,19.8,9.9,30.33,East,93,0.0,0.0,65,0.00,,,0.00,Wunderground v.1.15,2013-03-18 02:20:00,
2013-03-17 22:26:00,19.7,10.2,30.33,East,93,0.0,0.0,66,0.00,,,0.00,Wunderground v.1.15,2013-03-18 02:26:00,
2013-03-17 22:32:00,19.7,10.2,30.33,East,93,0.0,0.0,66,0.00,,,0.00,Wunderground v.1.15,2013-03-18 02:32:00,
2013-03-17 22:38:00,19.8,10.3,30.33,East,93,0.0,0.0,66,0.00,,,0.00,Wunderground v.1.15,2013-03-18 02:38:00,
2013-03-17 22:44:00,19.7,10.2,30.33,East,93,0.0,0.0,66,0.00,,,0.00,Wunderground v.1.15,2013-03-18 02:44:00,
2013-03-17 22:50:00,19.7,10.2,30.33,East,93,0.0,0.0,66,0.00,,,0.00,Wunderground v.1.15,2013-03-18 02:50:00,
2013-03-17 22:56:00,19.4,10.2,30.33,East,93,0.0,0.0,67,0.00,,,0.00,Wunderground v.1.15,2013-03-18 02:56:00,
2013-03-17 23:02:00,19.2,10.4,30.33,East,93,0.0,0.0,68,0.00,,,0.00,Wunderground v.1.15,2013-03-18 03:02:00,
2013-03-17 23:08:00,19.2,10.0,30.33,East,93,0.0,0.0,67,0.00,,,0.00,Wunderground v.1.15,2013-03-18 03:08:00,
2013-03-17 23:14:00,19.1,9.9,30.33,East,94,0.0,0.0,67,0.00,,,0.00,Wunderground v.1.15,2013-03-18 03:14:00,
2013-03-17 23:20:00,19.2,10.4,30.33,ENE,70,0.0,0.0,68,0.00,,,0.00,Wunderground v.1.15,2013-03-18 03:20:00,
2013-03-17 23:26:00,19.3,10.1,30.33,NNE,17,0.0,0.0,67,0.00,,,0.00,Wunderground v.1.15,2013-03-18 03:26:00,
2013-03-17 23:32:00,19.2,10.0,30.33,NNE,17,0.0,0.0,67,0.00,,,0.00,Wunderground v.1.15,2013-03-18 03:32:00,
2013-03-17 23:38:00,18.9,10.1,30.33,NNE,18,0.0,0.0,68,0.00,,,0.00,Wunderground v.1.15,2013-03-18 03:38:00,
2013-03-17 23:44:00,18.6,10.1,30.33,NNE,17,0.0,0.0,69,0.00,,,0.00,Wunderground v.1.15,2013-03-18 03:44:00,
2013-03-17 23:50:00,18.5,10.3,30.33,NNE,18,0.0,0.0,70,0.00,,,0.00,Wunderground v.1.15,2013-03-18 03:50:00,
2013-03-17 23:56:00,18.1,10.3,30.33,NNE,18,0.0,0.0,71,0.00,,,0.00,Wunderground v.1.15,2013-03-18 03:56:00,